createdAt,value
2018-12-29T00:02:25.774Z,2.09
2018-12-29T00:04:52.978Z,2.07
2018-12-29T00:07:20.428Z,2.05
2018-12-29T00:09:48.008Z,2.01
2018-12-29T00:12:15.201Z,1.99
2018-12-29T00:14:42.464Z,2.14
2018-12-29T00:17:09.617Z,2.16
2018-12-29T00:19:36.779Z,2.10
2018-12-29T00:22:04.073Z,2.14
2018-12-29T00:24:31.277Z,2.17
2018-12-29T00:26:58.455Z,2.18
2018-12-29T00:29:25.697Z,2.08
2018-12-29T00:31:52.846Z,1.95
2018-12-29T00:34:20.039Z,2.01
2018-12-29T00:36:47.430Z,1.94
2018-12-29T00:39:14.608Z,1.86
2018-12-29T00:41:41.666Z,2.00
2018-12-29T00:44:08.875Z,2.00
2018-12-29T00:46:36.036Z,1.82
2018-12-29T00:49:03.201Z,1.82
2018-12-29T00:51:30.695Z,1.74
2018-12-29T00:53:57.889Z,1.68
2018-12-29T00:56:25.045Z,1.66
2018-12-29T00:58:52.259Z,1.58
2018-12-29T01:01:19.407Z,1.63
2018-12-29T01:03:46.629Z,1.66
2018-12-29T01:06:14.153Z,1.72
2018-12-29T01:08:41.313Z,1.67
2018-12-29T01:11:08.813Z,1.76
2018-12-29T01:13:36.279Z,1.80
2018-12-29T01:16:03.363Z,1.86
2018-12-29T01:18:30.569Z,1.93
2018-12-29T01:20:57.681Z,1.82
2018-12-29T01:23:24.736Z,1.74
2018-12-29T01:25:52.486Z,1.78
2018-12-29T01:28:20.535Z,1.75
2018-12-29T01:30:47.775Z,1.65
2018-12-29T01:33:14.847Z,1.61
2018-12-29T01:35:41.936Z,1.54
2018-12-29T01:38:09.388Z,1.59
2018-12-29T01:40:36.541Z,1.74
2018-12-29T01:43:03.770Z,1.68
2018-12-29T01:45:30.965Z,1.70
2018-12-29T01:47:58.003Z,1.72
2018-12-29T01:50:25.207Z,1.69
2018-12-29T01:52:52.383Z,1.66
2018-12-29T01:55:19.539Z,1.62
2018-12-29T01:57:46.750Z,1.64
2018-12-29T02:00:13.804Z,1.78
2018-12-29T02:02:41.021Z,1.80
2018-12-29T02:05:11.958Z,1.80
2018-12-29T02:07:39.129Z,1.72
2018-12-29T02:10:06.223Z,1.73
2018-12-29T02:12:33.736Z,1.84
2018-12-29T02:15:00.912Z,1.81
2018-12-29T02:17:28.089Z,1.83
2018-12-29T02:19:55.305Z,1.83
2018-12-29T02:22:22.441Z,1.86
2018-12-29T02:24:49.617Z,1.98
2018-12-29T02:27:16.790Z,2.00
2018-12-29T02:29:43.999Z,1.99
2018-12-29T02:32:11.154Z,1.96
2018-12-29T02:34:38.359Z,1.87
2018-12-29T02:37:05.518Z,1.85
2018-12-29T02:39:32.697Z,1.85
2018-12-29T02:42:00.086Z,1.81
2018-12-29T02:44:27.511Z,1.80
2018-12-29T02:46:54.570Z,1.77
2018-12-29T02:49:21.826Z,1.82
2018-12-29T02:51:49.015Z,1.91
2018-12-29T02:54:16.212Z,1.88
2018-12-29T02:56:43.419Z,1.81
2018-12-29T02:59:10.609Z,1.75
2018-12-29T03:01:37.771Z,1.71
2018-12-29T03:04:04.951Z,1.75
2018-12-29T03:06:32.159Z,1.82
2018-12-29T03:08:59.372Z,1.80
2018-12-29T03:11:26.557Z,1.83
2018-12-29T03:13:53.719Z,1.87
2018-12-29T03:16:20.935Z,1.93
2018-12-29T03:18:48.114Z,1.94
2018-12-29T03:21:16.177Z,2.01
2018-12-29T03:23:43.247Z,2.10
2018-12-29T03:26:10.453Z,2.09
2018-12-29T03:28:37.504Z,2.00
2018-12-29T03:31:04.685Z,2.03
2018-12-29T03:33:32.131Z,1.98
2018-12-29T03:35:59.187Z,1.89
2018-12-29T03:38:26.339Z,1.77
2018-12-29T03:40:53.649Z,1.82
2018-12-29T03:43:20.810Z,1.84
2018-12-29T03:45:49.212Z,1.86
2018-12-29T03:48:16.711Z,1.91
2018-12-29T03:50:43.770Z,1.88
2018-12-29T03:53:11.614Z,1.87
2018-12-29T03:55:39.330Z,1.87
2018-12-29T03:58:06.484Z,1.90
2018-12-29T04:00:33.946Z,1.96
2018-12-29T04:03:01.157Z,2.02
2018-12-29T04:05:28.238Z,2.02
2018-12-29T04:07:55.404Z,2.02
2018-12-29T04:10:22.847Z,2.08
2018-12-29T04:12:53.504Z,2.17
2018-12-29T04:15:20.871Z,2.13
2018-12-29T04:17:47.985Z,2.10
2018-12-29T04:20:15.157Z,2.12
2018-12-29T04:22:42.345Z,2.13
2018-12-29T04:25:09.641Z,2.13
2018-12-29T04:27:36.804Z,2.16
2018-12-29T04:30:04.024Z,2.10
2018-12-29T04:32:31.277Z,2.05
2018-12-29T04:34:58.448Z,2.07
2018-12-29T04:37:25.595Z,2.05
2018-12-29T04:39:52.822Z,2.19
2018-12-29T04:42:19.979Z,2.21
2018-12-29T04:44:47.180Z,2.10
2018-12-29T04:47:14.379Z,2.19
2018-12-29T04:49:41.516Z,2.25
2018-12-29T04:52:10.463Z,2.13
2018-12-29T04:54:37.661Z,2.09
2018-12-29T04:57:04.709Z,2.08
2018-12-29T04:59:31.888Z,2.00
2018-12-29T05:01:59.066Z,1.98
2018-12-29T05:04:26.218Z,1.93
2018-12-29T05:06:53.367Z,1.96
2018-12-29T05:15:00.202Z,2.11
2018-12-29T05:17:27.380Z,2.10
2018-12-29T05:19:54.531Z,2.05
2018-12-29T05:22:21.817Z,1.98
2018-12-29T05:24:49.016Z,1.93
2018-12-29T05:27:16.218Z,2.00
2018-12-29T05:29:43.464Z,2.02
2018-12-29T05:32:51.442Z,1.86
2018-12-29T05:35:18.661Z,1.83
2018-12-29T05:37:45.834Z,1.89
2018-12-29T05:45:54.892Z,1.92
2018-12-29T05:48:22.074Z,1.91
2018-12-29T05:50:49.287Z,1.90
2018-12-29T05:53:35.955Z,1.95
2018-12-29T05:59:36.760Z,2.00
2018-12-29T06:02:03.947Z,2.01
2018-12-29T06:04:31.150Z,2.08
2018-12-29T06:07:17.812Z,2.04
2018-12-29T06:10:16.911Z,2.10
2018-12-29T06:12:45.354Z,1.97
2018-12-29T06:15:19.832Z,1.95
2018-12-29T06:17:46.999Z,1.85
2018-12-29T06:20:33.724Z,1.91
2018-12-29T06:28:54.603Z,2.02
2018-12-29T06:31:21.724Z,2.05
2018-12-29T06:33:48.909Z,2.02
2018-12-29T06:36:15.997Z,2.00
2018-12-29T06:38:43.183Z,2.12
2018-12-29T06:41:10.374Z,2.12
2018-12-29T06:43:57.070Z,2.12
2018-12-29T06:46:43.709Z,2.09
2018-12-29T06:49:10.887Z,2.17
2018-12-29T06:51:39.193Z,2.28
2018-12-29T06:54:16.606Z,2.17
2018-12-29T06:56:43.780Z,2.09
2018-12-29T07:02:29.614Z,2.27
2018-12-29T07:04:57.146Z,2.16
2018-12-29T07:07:43.832Z,2.07
2018-12-29T07:10:11.364Z,2.08
2018-12-29T07:12:38.635Z,2.14
2018-12-29T07:18:20.175Z,2.09
2018-12-29T07:20:47.267Z,2.09
2018-12-29T07:26:15.596Z,2.12
2018-12-29T07:28:42.725Z,2.17
2018-12-29T07:31:10.294Z,2.23
2018-12-29T07:36:15.964Z,2.31
2018-12-29T07:39:03.683Z,2.29
2018-12-29T07:41:30.876Z,2.29
2018-12-29T07:43:58.088Z,2.34
2018-12-29T07:46:25.546Z,2.38
2018-12-29T07:52:13.343Z,2.34
2018-12-29T07:54:40.428Z,2.43
2018-12-29T07:57:07.630Z,2.48
2018-12-29T07:59:34.800Z,2.40
2018-12-29T08:02:01.990Z,2.33
2018-12-29T08:04:48.763Z,2.34
2018-12-29T08:07:16.251Z,2.35
2018-12-29T08:10:24.355Z,2.29
2018-12-29T08:16:10.022Z,2.38
2018-12-29T08:21:38.210Z,2.46
2018-12-29T08:24:24.927Z,2.62
2018-12-29T08:26:52.168Z,2.57
2018-12-29T08:35:59.953Z,2.35
2018-12-29T08:38:27.123Z,2.40
2018-12-29T08:40:54.310Z,2.58
2018-12-29T08:43:21.504Z,2.61
2018-12-29T08:45:48.695Z,2.64
2018-12-29T08:48:35.366Z,2.56
2018-12-29T08:54:36.171Z,2.46
2018-12-29T08:57:23.045Z,2.60
2018-12-29T08:59:50.284Z,2.65
2018-12-29T09:08:58.834Z,2.99
2018-12-29T09:11:26.048Z,3.09
2018-12-29T09:16:54.549Z,3.05
2018-12-29T09:19:27.189Z,3.10
2018-12-29T09:22:00.292Z,3.18
2018-12-29T09:24:28.013Z,3.21
2018-12-29T09:26:55.191Z,3.25
2018-12-29T09:29:41.782Z,3.29
2018-12-29T09:38:09.139Z,3.60
2018-12-29T09:40:36.327Z,3.66
2018-12-29T09:43:03.964Z,3.59
2018-12-29T09:45:31.055Z,3.40
2018-12-29T09:51:51.386Z,3.48
2018-12-29T09:54:18.588Z,3.53
2018-12-29T09:56:45.751Z,3.53
2018-12-29T09:59:53.809Z,3.57
2018-12-29T10:02:21.040Z,3.64
2018-12-29T10:04:48.250Z,3.62
2018-12-29T10:07:15.839Z,3.60
2018-12-29T10:09:43.086Z,3.62
2018-12-29T10:12:10.341Z,3.79
2018-12-29T10:15:18.722Z,3.82
2018-12-29T10:17:46.126Z,3.82
2018-12-29T10:20:13.679Z,3.83
2018-12-29T10:22:40.875Z,3.88
2018-12-29T10:25:08.078Z,3.95
2018-12-29T10:27:47.497Z,3.98
2018-12-29T10:30:14.674Z,4.05
2018-12-29T10:33:01.492Z,4.10
2018-12-29T10:35:30.487Z,4.10
2018-12-29T10:37:57.668Z,4.11
2018-12-29T10:40:56.651Z,4.18
2018-12-29T10:43:23.832Z,4.28
2018-12-29T10:46:10.793Z,4.32
2018-12-29T10:48:37.983Z,4.37
2018-12-29T10:54:06.187Z,4.43
2018-12-29T10:56:33.817Z,4.53
2018-12-29T10:59:01.306Z,4.50
2018-12-29T11:01:30.734Z,4.51
2018-12-29T11:03:57.918Z,4.57
2018-12-29T11:09:26.597Z,4.65
2018-12-29T11:11:53.849Z,4.68
2018-12-29T11:14:40.535Z,4.69
2018-12-29T11:17:07.741Z,4.68
2018-12-29T11:19:34.962Z,4.72
2018-12-29T11:22:02.196Z,4.77
2018-12-29T11:24:31.318Z,4.91
2018-12-29T11:27:18.165Z,4.73
2018-12-29T11:29:45.353Z,4.65
2018-12-29T11:32:12.642Z,4.57
2018-12-29T11:35:20.698Z,4.45
2018-12-29T11:37:47.908Z,4.46
2018-12-29T11:40:15.105Z,4.52
2018-12-29T11:45:20.530Z,4.73
2018-12-29T11:47:50.022Z,4.66
2018-12-29T11:50:26.442Z,4.66
2018-12-29T11:53:06.374Z,4.85
2018-12-29T11:55:33.630Z,4.91
2018-12-29T11:58:08.530Z,4.89
2018-12-29T12:03:37.655Z,4.97
2018-12-29T12:06:04.787Z,5.04
2018-12-29T12:08:32.015Z,5.12
2018-12-29T12:10:59.575Z,5.20
2018-12-29T12:13:26.789Z,5.20
2018-12-29T12:18:34.032Z,5.08
2018-12-29T12:21:42.205Z,5.02
2018-12-29T12:24:28.930Z,5.01
2018-12-29T12:26:56.116Z,5.07
2018-12-29T12:29:55.083Z,5.16
2018-12-29T12:32:22.270Z,5.30
2018-12-29T12:34:57.620Z,5.18
2018-12-29T12:37:30.680Z,5.11
2018-12-29T12:40:06.241Z,5.09
2018-12-29T12:42:33.468Z,5.19
2018-12-29T12:48:19.675Z,5.32
2018-12-29T12:50:47.110Z,5.38
2018-12-29T12:53:14.279Z,5.41
2018-12-29T12:55:53.148Z,5.45
2018-12-29T12:59:09.281Z,5.49
2018-12-29T13:01:36.512Z,5.55
2018-12-29T13:04:23.159Z,5.66
2018-12-29T13:06:50.424Z,5.74
2018-12-29T13:09:17.591Z,5.77
2018-12-29T13:12:04.295Z,5.73
2018-12-29T13:20:32.313Z,5.59
2018-12-29T13:22:59.483Z,5.55
2018-12-29T13:25:26.722Z,5.44
2018-12-29T13:28:13.668Z,5.42
2018-12-29T13:31:00.347Z,5.40
2018-12-29T13:33:27.575Z,5.33
2018-12-29T13:38:53.855Z,5.35
2018-12-29T13:41:21.063Z,5.33
2018-12-29T13:46:49.580Z,5.13
2018-12-29T13:52:17.955Z,5.07
2018-12-29T13:54:45.050Z,5.01
2018-12-29T13:57:12.573Z,4.84
2018-12-29T13:59:39.708Z,4.76
2018-12-29T14:02:06.877Z,4.75
2018-12-29T14:04:34.045Z,4.76
2018-12-29T14:10:02.006Z,4.62
2018-12-29T14:12:30.981Z,4.68
2018-12-29T14:17:57.489Z,4.83
2018-12-29T14:20:24.701Z,4.76
2018-12-29T14:22:51.901Z,4.71
2018-12-29T14:25:19.133Z,4.69
2018-12-29T14:27:46.291Z,4.60
2018-12-29T14:30:13.850Z,4.59
2018-12-29T14:32:52.941Z,4.51
2018-12-29T14:35:20.161Z,4.56
2018-12-29T14:37:47.334Z,4.57
2018-12-29T14:40:42.113Z,4.54
2018-12-29T14:43:09.323Z,4.62
2018-12-29T14:48:36.617Z,4.50
2018-12-29T14:51:04.177Z,4.42
2018-12-29T14:53:33.185Z,4.47
2018-12-29T14:56:08.616Z,4.41
2018-12-29T14:58:35.825Z,4.48
2018-12-29T15:01:02.991Z,4.47
2018-12-29T15:03:30.566Z,4.50
2018-12-29T15:05:57.684Z,4.64
2018-12-29T15:08:24.863Z,4.52
2018-12-29T15:10:52.105Z,4.50
2018-12-29T15:13:40.952Z,4.55
2018-12-29T15:16:27.939Z,4.38
2018-12-29T15:19:14.577Z,4.47
2018-12-29T15:22:01.334Z,4.45
2018-12-29T15:24:48.686Z,4.31
2018-12-29T15:27:16.172Z,4.35
2018-12-29T15:29:43.387Z,4.41
2018-12-29T15:32:32.250Z,4.39
2018-12-29T15:35:07.541Z,4.25
2018-12-29T15:37:54.513Z,4.28
2018-12-29T15:40:41.141Z,4.28
2018-12-29T15:43:49.209Z,4.34
2018-12-29T15:49:37.696Z,4.28
2018-12-29T15:52:04.897Z,4.29
2018-12-29T15:55:02.971Z,4.22
2018-12-29T16:01:14.582Z,4.13
2018-12-29T16:10:16.249Z,4.17
2018-12-29T16:12:43.802Z,4.18
2018-12-29T16:15:38.727Z,4.06
2018-12-29T16:18:05.831Z,4.25
2018-12-29T16:20:32.955Z,4.22
2018-12-29T16:23:00.160Z,4.14
2018-12-29T16:25:27.340Z,4.18
2018-12-29T16:27:54.559Z,4.23
2018-12-29T16:30:43.451Z,4.25
2018-12-29T16:33:10.528Z,4.21
2018-12-29T16:35:57.132Z,4.14
2018-12-29T16:38:24.332Z,4.21
2018-12-29T16:40:57.852Z,4.12
2018-12-29T16:43:49.778Z,4.08
2018-12-29T16:46:17.457Z,4.06
2018-12-29T16:49:25.492Z,4.05
2018-12-29T16:51:52.603Z,4.20
2018-12-29T16:54:39.393Z,4.07
2018-12-29T16:57:07.109Z,4.12
2018-12-29T16:59:34.830Z,4.15
2018-12-29T17:10:43.137Z,4.06
2018-12-29T17:13:10.849Z,4.20
2018-12-29T17:15:38.953Z,4.19
2018-12-29T17:18:06.674Z,4.28
2018-12-29T17:20:54.181Z,4.25
2018-12-29T17:23:40.936Z,4.27
2018-12-29T17:26:08.332Z,4.23
2018-12-29T17:29:03.232Z,4.14
2018-12-29T17:31:30.459Z,4.24
2018-12-29T17:34:06.026Z,4.38
2018-12-29T17:36:33.270Z,4.39
2018-12-29T17:39:00.495Z,4.34
2018-12-29T17:41:27.820Z,4.27
2018-12-29T17:43:55.050Z,4.41
2018-12-29T17:46:22.260Z,4.49
2018-12-29T17:48:49.658Z,4.44
2018-12-29T17:51:17.355Z,4.41
2018-12-29T17:53:48.097Z,4.50
2018-12-29T17:56:23.764Z,4.64
2018-12-29T17:59:10.491Z,4.65
2018-12-29T18:04:37.030Z,4.53
2018-12-29T18:07:04.212Z,4.49
2018-12-29T18:09:57.150Z,4.38
2018-12-29T18:12:26.683Z,4.31
2018-12-29T18:14:53.951Z,4.29
2018-12-29T18:17:21.154Z,4.40
2018-12-29T18:19:48.429Z,4.29
2018-12-29T18:22:15.675Z,4.23
2018-12-29T18:24:42.859Z,4.24
2018-12-29T18:27:22.737Z,4.28
2018-12-29T18:29:50.581Z,4.22
2018-12-29T18:32:18.157Z,4.32
2018-12-29T18:34:45.386Z,4.24
2018-12-29T18:37:34.220Z,4.29
2018-12-29T18:40:23.884Z,4.30
2018-12-29T18:42:51.088Z,4.40
2018-12-29T18:45:59.001Z,4.43
2018-12-29T18:51:38.620Z,4.53
2018-12-29T18:54:05.843Z,4.42
2018-12-29T18:57:00.629Z,4.46
2018-12-29T18:59:27.826Z,4.34
2018-12-29T19:02:16.702Z,4.27
2018-12-29T19:04:43.908Z,4.16
2018-12-29T19:07:11.087Z,4.23
2018-12-29T19:09:38.319Z,4.22
2018-12-29T19:12:24.951Z,4.24
2018-12-29T19:17:32.315Z,4.18
2018-12-29T19:20:21.463Z,4.24
2018-12-29T19:23:08.176Z,4.35
2018-12-29T19:25:35.786Z,4.42
2018-12-29T19:28:12.116Z,4.51
2018-12-29T19:30:39.322Z,4.42
2018-12-29T19:35:54.813Z,4.30
2018-12-29T19:39:04.077Z,4.32
2018-12-29T19:41:55.057Z,4.40
2018-12-29T19:44:41.426Z,4.44
2018-12-29T19:47:40.152Z,4.49
2018-12-29T19:50:14.416Z,4.56
2018-12-29T19:52:42.115Z,4.62
2018-12-29T19:55:09.659Z,4.69
2018-12-29T19:57:37.251Z,4.60
2018-12-29T20:00:46.010Z,4.54
2018-12-29T20:03:21.852Z,4.72
2018-12-29T20:06:00.472Z,4.73
2018-12-29T20:08:59.126Z,4.78
2018-12-29T20:11:45.833Z,4.90
2018-12-29T20:14:13.288Z,4.84
2018-12-29T20:16:40.821Z,4.81
2018-12-29T20:19:08.457Z,4.83
2018-12-29T20:21:55.540Z,4.84
2018-12-29T20:24:22.990Z,4.98
2018-12-29T20:26:50.172Z,5.04
2018-12-29T20:29:17.375Z,4.90
2018-12-29T20:37:46.902Z,4.83
2018-12-29T20:40:14.070Z,4.89
2018-12-29T20:42:41.612Z,4.91
2018-12-29T20:45:49.530Z,4.82
2018-12-29T20:48:16.628Z,4.77
2018-12-29T20:51:24.626Z,4.83
2018-12-29T20:53:52.262Z,4.83
2018-12-29T20:56:19.444Z,5.13
2018-12-29T21:02:00.036Z,5.09
2018-12-29T21:08:00.728Z,5.01
2018-12-29T21:10:27.933Z,5.04
2018-12-29T21:12:55.018Z,5.12
2018-12-29T21:15:33.757Z,5.07
2018-12-29T21:21:34.613Z,5.12
2018-12-29T21:24:02.189Z,5.17
2018-12-29T21:26:29.445Z,5.23
2018-12-29T21:29:16.563Z,5.36
2018-12-29T21:32:03.233Z,5.36
2018-12-29T21:34:30.465Z,5.35
2018-12-29T21:37:19.815Z,5.49
2018-12-29T21:39:47.814Z,5.46
2018-12-29T21:42:15.035Z,5.42
2018-12-29T21:44:42.268Z,5.43
2018-12-29T21:47:31.221Z,5.36
2018-12-29T21:49:58.429Z,5.56
2018-12-29T21:52:45.116Z,5.64
2018-12-29T21:55:12.574Z,5.62
2018-12-29T21:57:39.771Z,5.58
2018-12-29T22:00:48.124Z,5.62
2018-12-29T22:03:15.190Z,5.73
2018-12-29T22:06:02.030Z,5.58
2018-12-29T22:12:03.083Z,5.67
2018-12-29T22:14:38.637Z,5.55
2018-12-29T22:17:17.740Z,5.53
2018-12-29T22:19:44.936Z,5.63
2018-12-29T22:22:31.703Z,5.71
2018-12-29T22:24:58.947Z,5.67
2018-12-29T22:28:06.964Z,5.64
2018-12-29T22:30:34.180Z,5.92
2018-12-29T22:33:01.382Z,5.87
2018-12-29T22:38:29.484Z,5.87
2018-12-29T22:40:57.085Z,5.88
2018-12-29T22:43:43.768Z,5.83
2018-12-29T22:46:10.939Z,5.83
2018-12-29T22:48:38.136Z,5.81
2018-12-29T22:51:05.675Z,5.83
2018-12-29T22:53:32.883Z,5.97
2018-12-29T22:56:00.092Z,6.11
2018-12-29T23:04:09.108Z,5.95
2018-12-29T23:06:38.126Z,5.97
2018-12-29T23:09:17.255Z,5.92
2018-12-29T23:11:44.459Z,5.88
2018-12-29T23:14:11.643Z,5.84
2018-12-29T23:16:50.796Z,5.82
2018-12-29T23:19:17.974Z,5.81
2018-12-29T23:22:04.761Z,6.22
2018-12-29T23:27:52.249Z,6.15
2018-12-29T23:30:19.809Z,6.09
2018-12-29T23:33:30.190Z,6.05
2018-12-29T23:39:09.786Z,6.03
2018-12-29T23:47:39.283Z,6.03
2018-12-29T23:53:08.410Z,6.21
2018-12-29T23:56:06.513Z,6.42
2018-12-29T23:58:33.757Z,6.29
